sensor_id;sensor_type;location;lat;lon;timestamp;pressure;altitude;pressure_sealevel;temperature;humidity
56737;BME280;42618;51.226;4.910;2023-04-23T00:01:06;49721.03;;;-146.94;84.48
56737;BME280;42618;51.226;4.910;2023-04-23T00:03:35;49715.03;;;-146.94;84.49
56737;BME280;42618;51.226;4.910;2023-04-23T00:06:07;49707.06;;;-146.94;85.11
56737;BME280;42618;51.226;4.910;2023-04-23T00:08:39;49723.03;;;-146.94;84.66
56737;BME280;42618;51.226;4.910;2023-04-23T00:11:07;49707.06;;;-146.94;84.41
56737;BME280;42618;51.226;4.910;2023-04-23T00:13:34;49731.00;;;-146.94;85.18
56737;BME280;42618;51.226;4.910;2023-04-23T00:16:01;49713.06;;;-146.94;84.61
56737;BME280;42618;51.226;4.910;2023-04-23T00:18:28;49723.03;;;-146.94;84.96
56737;BME280;42618;51.226;4.910;2023-04-23T00:20:55;49723.03;;;-146.94;85.90
56737;BME280;42618;51.226;4.910;2023-04-23T00:23:23;49734.97;;;-146.94;86.43
56737;BME280;42618;51.226;4.910;2023-04-23T00:25:49;49738.97;;;-146.94;85.86
56737;BME280;42618;51.226;4.910;2023-04-23T00:28:16;49697.09;;;-146.94;85.96
56737;BME280;42618;51.226;4.910;2023-04-23T00:30:46;49746.94;;;-146.94;86.56
56737;BME280;42618;51.226;4.910;2023-04-23T00:33:13;49713.06;;;-146.94;85.75
56737;BME280;42618;51.226;4.910;2023-04-23T00:35:39;49742.94;;;-146.94;87.71
56737;BME280;42618;51.226;4.910;2023-04-23T00:38:06;49705.06;;;-146.94;87.99
56737;BME280;42618;51.226;4.910;2023-04-23T00:40:33;49731.00;;;-146.94;87.42
56737;BME280;42618;51.226;4.910;2023-04-23T00:43:00;49719.03;;;-146.94;86.65
56737;BME280;42618;51.226;4.910;2023-04-23T00:45:27;49734.97;;;-146.94;86.72
56737;BME280;42618;51.226;4.910;2023-04-23T00:47:54;49731.00;;;-146.94;87.14
56737;BME280;42618;51.226;4.910;2023-04-23T00:50:21;49750.94;;;-146.94;87.44
56737;BME280;42618;51.226;4.910;2023-04-23T00:52:48;49715.03;;;-146.94;86.59
56737;BME280;42618;51.226;4.910;2023-04-23T00:55:15;49742.94;;;-146.94;87.38
56737;BME280;42618;51.226;4.910;2023-04-23T00:57:42;49713.06;;;-146.94;87.11
56737;BME280;42618;51.226;4.910;2023-04-23T01:00:10;49709.06;;;-146.94;87.42
56737;BME280;42618;51.226;4.910;2023-04-23T01:02:41;49754.91;;;-146.94;87.54
56737;BME280;42618;51.226;4.910;2023-04-23T01:05:10;49709.06;;;-146.94;87.16
56737;BME280;42618;51.226;4.910;2023-04-23T01:07:37;49725.00;;;-146.94;86.82
56737;BME280;42618;51.226;4.910;2023-04-23T01:10:04;49778.84;;;-146.94;85.99
56737;BME280;42618;51.226;4.910;2023-04-23T01:12:32;49707.06;;;-146.94;86.21
56737;BME280;42618;51.226;4.910;2023-04-23T01:14:59;49723.03;;;-146.94;87.22
56737;BME280;42618;51.226;4.910;2023-04-23T01:17:26;49742.94;;;-146.94;89.25
56737;BME280;42618;51.226;4.910;2023-04-23T01:19:53;49738.97;;;-146.94;88.58
56737;BME280;42618;51.226;4.910;2023-04-23T01:22:20;49740.97;;;-146.94;87.80
56737;BME280;42618;51.226;4.910;2023-04-23T01:24:47;49701.09;;;-146.94;87.01
56737;BME280;42618;51.226;4.910;2023-04-23T01:27:14;49713.06;;;-146.94;86.80
56737;BME280;42618;51.226;4.910;2023-04-23T01:29:41;49727.00;;;-146.94;87.37
56737;BME280;42618;51.226;4.910;2023-04-23T01:32:08;49746.94;;;-146.94;87.64
56737;BME280;42618;51.226;4.910;2023-04-23T01:34:37;49727.00;;;-146.94;86.94
56737;BME280;42618;51.226;4.910;2023-04-23T01:37:04;49738.97;;;-146.94;87.63
56737;BME280;42618;51.226;4.910;2023-04-23T01:39:32;49709.06;;;-146.94;86.90
56737;BME280;42618;51.226;4.910;2023-04-23T01:41:59;49729.00;;;-146.94;85.96
56737;BME280;42618;51.226;4.910;2023-04-23T01:44:27;49715.03;;;-146.94;86.82
56737;BME280;42618;51.226;4.910;2023-04-23T01:46:53;49733.00;;;-146.94;85.08
56737;BME280;42618;51.226;4.910;2023-04-23T01:49:22;49734.97;;;-146.94;83.92
56737;BME280;42618;51.226;4.910;2023-04-23T01:51:48;49731.00;;;-146.94;87.14
56737;BME280;42618;51.226;4.910;2023-04-23T01:54:15;49723.03;;;-146.94;86.86
56737;BME280;42618;51.226;4.910;2023-04-23T01:56:42;49723.03;;;-146.94;86.34
56737;BME280;42618;51.226;4.910;2023-04-23T01:59:09;49725.00;;;-146.94;87.39
56737;BME280;42618;51.226;4.910;2023-04-23T02:01:45;49685.13;;;-146.94;86.62
56737;BME280;42618;51.226;4.910;2023-04-23T02:04:15;49719.03;;;-146.94;86.22
56737;BME280;42618;51.226;4.910;2023-04-23T02:06:45;49731.00;;;-146.94;86.05
56737;BME280;42618;51.226;4.910;2023-04-23T02:09:12;49744.94;;;-146.94;86.02
56737;BME280;42618;51.226;4.910;2023-04-23T02:11:39;49683.16;;;-146.94;84.58
56737;BME280;42618;51.226;4.910;2023-04-23T02:14:07;49713.06;;;-146.94;84.64
56737;BME280;42618;51.226;4.910;2023-04-23T02:16:34;49697.09;;;-146.94;85.64
56737;BME280;42618;51.226;4.910;2023-04-23T02:19:01;49731.00;;;-146.94;86.21
56737;BME280;42618;51.226;4.910;2023-04-23T02:21:28;49709.06;;;-146.94;84.88
56737;BME280;42618;51.226;4.910;2023-04-23T02:23:55;49711.06;;;-146.94;84.10
56737;BME280;42618;51.226;4.910;2023-04-23T02:26:22;49705.06;;;-146.94;85.94
56737;BME280;42618;51.226;4.910;2023-04-23T02:28:50;49719.03;;;-146.94;84.81
56737;BME280;42618;51.226;4.910;2023-04-23T02:31:18;49756.91;;;-146.94;83.65
56737;BME280;42618;51.226;4.910;2023-04-23T02:33:46;49711.06;;;-146.94;84.31
56737;BME280;42618;51.226;4.910;2023-04-23T02:36:13;49731.00;;;-146.94;85.88
56737;BME280;42618;51.226;4.910;2023-04-23T02:38:40;49697.09;;;-146.94;85.30
56737;BME280;42618;51.226;4.910;2023-04-23T02:41:08;49721.03;;;-146.94;86.08
56737;BME280;42618;51.226;4.910;2023-04-23T02:43:34;49693.13;;;-146.94;85.99
56737;BME280;42618;51.226;4.910;2023-04-23T02:46:01;49727.00;;;-146.94;86.25
56737;BME280;42618;51.226;4.910;2023-04-23T02:48:39;49715.03;;;-146.94;84.70
56737;BME280;42618;51.226;4.910;2023-04-23T02:51:11;49715.03;;;-146.94;84.78
56737;BME280;42618;51.226;4.910;2023-04-23T02:53:39;49742.94;;;-146.94;85.40
56737;BME280;42618;51.226;4.910;2023-04-23T02:56:06;49727.00;;;-146.94;85.60
56737;BME280;42618;51.226;4.910;2023-04-23T02:58:34;49691.13;;;-146.94;85.18
56737;BME280;42618;51.226;4.910;2023-04-23T03:01:01;49729.00;;;-146.94;84.90
56737;BME280;42618;51.226;4.910;2023-04-23T03:03:30;49707.06;;;-146.94;84.62
56737;BME280;42618;51.226;4.910;2023-04-23T03:06:00;49738.97;;;-146.94;84.87
56737;BME280;42618;51.226;4.910;2023-04-23T03:08:27;49719.03;;;-146.94;84.96
56737;BME280;42618;51.226;4.910;2023-04-23T03:10:54;49715.03;;;-146.94;85.47
56737;BME280;42618;51.226;4.910;2023-04-23T03:13:21;49742.94;;;-146.94;85.82
56737;BME280;42618;51.226;4.910;2023-04-23T03:15:49;49740.97;;;-146.94;85.38
56737;BME280;42618;51.226;4.910;2023-04-23T03:18:16;49693.13;;;-146.94;85.33
56737;BME280;42618;51.226;4.910;2023-04-23T03:20:46;49742.94;;;-146.94;85.18
56737;BME280;42618;51.226;4.910;2023-04-23T03:23:13;49729.00;;;-146.94;85.65
56737;BME280;42618;51.226;4.910;2023-04-23T03:25:40;49734.97;;;-146.94;85.71
56737;BME280;42618;51.226;4.910;2023-04-23T03:28:07;49719.03;;;-146.94;86.01
56737;BME280;42618;51.226;4.910;2023-04-23T03:30:33;49711.06;;;-146.94;85.49
56737;BME280;42618;51.226;4.910;2023-04-23T03:33:01;49699.09;;;-146.94;84.69
56737;BME280;42618;51.226;4.910;2023-04-23T03:35:29;49740.97;;;-146.94;84.20
56737;BME280;42618;51.226;4.910;2023-04-23T03:37:59;49707.06;;;-146.94;83.48
56737;BME280;42618;51.226;4.910;2023-04-23T03:40:26;49731.00;;;-146.94;84.83
56737;BME280;42618;51.226;4.910;2023-04-23T03:42:57;49733.00;;;-146.94;87.06
56737;BME280;42618;51.226;4.910;2023-04-23T03:45:45;49742.94;;;-146.94;86.48
56737;BME280;42618;51.226;4.910;2023-04-23T03:48:11;49717.03;;;-146.94;85.89
56737;BME280;42618;51.226;4.910;2023-04-23T03:50:38;49711.06;;;-146.94;86.60
56737;BME280;42618;51.226;4.910;2023-04-23T03:53:19;49705.06;;;-146.94;85.83
56737;BME280;42618;51.226;4.910;2023-04-23T03:56:07;49719.03;;;-146.94;87.14
56737;BME280;42618;51.226;4.910;2023-04-23T03:58:44;49729.00;;;-146.94;87.41
56737;BME280;42618;51.226;4.910;2023-04-23T04:01:11;49734.97;;;-146.94;88.36
56737;BME280;42618;51.226;4.910;2023-04-23T04:03:38;49731.00;;;-146.94;86.76
56737;BME280;42618;51.226;4.910;2023-04-23T04:06:05;49723.03;;;-146.94;86.94
56737;BME280;42618;51.226;4.910;2023-04-23T04:08:33;49707.06;;;-146.94;88.02
56737;BME280;42618;51.226;4.910;2023-04-23T04:11:00;49738.97;;;-146.94;86.92
56737;BME280;42618;51.226;4.910;2023-04-23T04:13:27;49713.06;;;-146.94;87.47
56737;BME280;42618;51.226;4.910;2023-04-23T04:15:53;49711.06;;;-146.94;87.38
56737;BME280;42618;51.226;4.910;2023-04-23T04:18:20;49689.13;;;-146.94;87.15
56737;BME280;42618;51.226;4.910;2023-04-23T04:20:47;49733.00;;;-146.94;86.92
56737;BME280;42618;51.226;4.910;2023-04-23T04:23:13;49691.13;;;-146.94;87.22
56737;BME280;42618;51.226;4.910;2023-04-23T04:25:40;49709.06;;;-146.94;85.96
56737;BME280;42618;51.226;4.910;2023-04-23T04:28:07;49770.88;;;-146.94;85.74
56737;BME280;42618;51.226;4.910;2023-04-23T04:30:37;49746.94;;;-146.94;87.43
56737;BME280;42618;51.226;4.910;2023-04-23T04:33:04;49740.97;;;-146.94;86.39
56737;BME280;42618;51.226;4.910;2023-04-23T04:35:31;49756.91;;;-146.94;87.08
56737;BME280;42618;51.226;4.910;2023-04-23T04:37:58;49723.03;;;-146.94;87.27
56737;BME280;42618;51.226;4.910;2023-04-23T04:40:26;49721.03;;;-146.94;86.43
56737;BME280;42618;51.226;4.910;2023-04-23T04:42:54;49715.03;;;-146.94;86.72
56737;BME280;42618;51.226;4.910;2023-04-23T04:45:20;49711.06;;;-146.94;86.30
56737;BME280;42618;51.226;4.910;2023-04-23T04:47:47;49731.00;;;-146.94;87.27
56737;BME280;42618;51.226;4.910;2023-04-23T04:50:14;49744.94;;;-146.94;88.10
56737;BME280;42618;51.226;4.910;2023-04-23T04:52:41;49744.94;;;-146.94;86.57
56737;BME280;42618;51.226;4.910;2023-04-23T04:55:08;49713.06;;;-146.94;87.85
56737;BME280;42618;51.226;4.910;2023-04-23T04:57:35;49760.91;;;-146.94;87.71
56737;BME280;42618;51.226;4.910;2023-04-23T05:00:27;49729.00;;;-146.94;86.46
56737;BME280;42618;51.226;4.910;2023-04-23T05:02:56;49723.03;;;-146.94;86.20
56737;BME280;42618;51.226;4.910;2023-04-23T05:05:24;49719.03;;;-146.94;86.39
56737;BME280;42618;51.226;4.910;2023-04-23T05:07:51;49748.94;;;-146.94;86.34
56737;BME280;42618;51.226;4.910;2023-04-23T05:10:20;49756.91;;;-146.94;85.50
56737;BME280;42618;51.226;4.910;2023-04-23T05:12:47;49736.97;;;-146.94;85.51
56737;BME280;42618;51.226;4.910;2023-04-23T05:15:14;49725.00;;;-146.94;86.12
56737;BME280;42618;51.226;4.910;2023-04-23T05:17:41;49729.00;;;-146.94;85.81
56737;BME280;42618;51.226;4.910;2023-04-23T05:20:09;49715.03;;;-146.94;85.87
56737;BME280;42618;51.226;4.910;2023-04-23T05:22:36;49734.97;;;-146.94;85.41
56737;BME280;42618;51.226;4.910;2023-04-23T05:25:04;49734.97;;;-146.94;85.06
56737;BME280;42618;51.226;4.910;2023-04-23T05:27:31;49750.94;;;-146.94;85.53
56737;BME280;42618;51.226;4.910;2023-04-23T05:30:00;49756.91;;;-146.94;85.43
56737;BME280;42618;51.226;4.910;2023-04-23T05:32:27;49715.03;;;-146.94;85.65
56737;BME280;42618;51.226;4.910;2023-04-23T05:34:53;49705.06;;;-146.94;84.73
56737;BME280;42618;51.226;4.910;2023-04-23T05:37:21;49713.06;;;-146.94;85.84
56737;BME280;42618;51.226;4.910;2023-04-23T05:39:48;49748.94;;;-146.94;85.56
56737;BME280;42618;51.226;4.910;2023-04-23T05:42:15;49750.94;;;-146.94;85.33
56737;BME280;42618;51.226;4.910;2023-04-23T05:44:41;49721.03;;;-146.94;85.51
56737;BME280;42618;51.226;4.910;2023-04-23T05:47:09;49727.00;;;-146.94;84.58
56737;BME280;42618;51.226;4.910;2023-04-23T05:49:36;49764.88;;;-146.94;83.73
56737;BME280;42618;51.226;4.910;2023-04-23T05:52:03;49734.97;;;-146.94;82.03
56737;BME280;42618;51.226;4.910;2023-04-23T05:54:30;49736.97;;;-146.94;82.25
56737;BME280;42618;51.226;4.910;2023-04-23T05:56:57;49764.88;;;-146.94;82.96
56737;BME280;42618;51.226;4.910;2023-04-23T05:59:24;49731.00;;;-146.94;81.74
56737;BME280;42618;51.226;4.910;2023-04-23T06:01:51;49711.06;;;-146.94;81.36
56737;BME280;42618;51.226;4.910;2023-04-23T06:04:18;49715.03;;;-146.94;81.20
56737;BME280;42618;51.226;4.910;2023-04-23T06:06:45;49711.06;;;-146.94;81.53
56737;BME280;42618;51.226;4.910;2023-04-23T06:09:12;49727.00;;;-146.94;80.87
56737;BME280;42618;51.226;4.910;2023-04-23T06:11:39;49695.09;;;-146.94;80.33
56737;BME280;42618;51.226;4.910;2023-04-23T06:14:05;49717.03;;;-146.94;80.27
56737;BME280;42618;51.226;4.910;2023-04-23T06:16:32;49721.03;;;-146.94;79.66
56737;BME280;42618;51.226;4.910;2023-04-23T06:18:59;49715.03;;;-146.94;79.80
56737;BME280;42618;51.226;4.910;2023-04-23T06:21:26;49729.00;;;-146.94;80.77
56737;BME280;42618;51.226;4.910;2023-04-23T06:23:53;49711.06;;;-146.94;80.40
56737;BME280;42618;51.226;4.910;2023-04-23T06:26:20;49750.94;;;-146.94;78.59
56737;BME280;42618;51.226;4.910;2023-04-23T06:28:48;49731.00;;;-146.94;79.43
56737;BME280;42618;51.226;4.910;2023-04-23T06:31:28;49713.06;;;-146.94;79.55
56737;BME280;42618;51.226;4.910;2023-04-23T06:33:54;49699.09;;;-146.94;78.06
56737;BME280;42618;51.226;4.910;2023-04-23T06:36:22;49766.88;;;-146.94;77.18
56737;BME280;42618;51.226;4.910;2023-04-23T06:38:48;49693.13;;;-146.94;77.71
56737;BME280;42618;51.226;4.910;2023-04-23T06:41:15;49729.00;;;-146.94;78.06
56737;BME280;42618;51.226;4.910;2023-04-23T06:43:42;49691.13;;;-146.94;76.38
56737;BME280;42618;51.226;4.910;2023-04-23T06:46:19;49711.06;;;-146.94;77.44
56737;BME280;42618;51.226;4.910;2023-04-23T06:48:46;49711.06;;;-146.94;76.56
56737;BME280;42618;51.226;4.910;2023-04-23T06:51:13;49691.13;;;-146.94;75.55
56737;BME280;42618;51.226;4.910;2023-04-23T06:53:40;49693.13;;;-146.94;75.78
56737;BME280;42618;51.226;4.910;2023-04-23T06:56:07;49699.09;;;-146.94;75.44
56737;BME280;42618;51.226;4.910;2023-04-23T06:58:34;49719.03;;;-146.94;75.36
56737;BME280;42618;51.226;4.910;2023-04-23T07:01:10;49657.22;;;-146.94;74.89
56737;BME280;42618;51.226;4.910;2023-04-23T07:03:37;49711.06;;;-146.94;74.27
56737;BME280;42618;51.226;4.910;2023-04-23T07:06:04;49685.13;;;-146.94;73.39
56737;BME280;42618;51.226;4.910;2023-04-23T07:08:31;49717.03;;;-146.94;73.57
56737;BME280;42618;51.226;4.910;2023-04-23T07:10:58;49713.06;;;-146.94;72.63
56737;BME280;42618;51.226;4.910;2023-04-23T07:13:25;49683.16;;;-146.94;73.97
56737;BME280;42618;51.226;4.910;2023-04-23T07:15:51;49695.09;;;-146.94;73.36
56737;BME280;42618;51.226;4.910;2023-04-23T07:18:18;49697.09;;;-146.94;72.80
56737;BME280;42618;51.226;4.910;2023-04-23T07:20:45;49675.19;;;-146.94;73.05
56737;BME280;42618;51.226;4.910;2023-04-23T07:23:12;49719.03;;;-146.94;72.06
56737;BME280;42618;51.226;4.910;2023-04-23T07:25:38;49721.03;;;-146.94;72.05
56737;BME280;42618;51.226;4.910;2023-04-23T07:28:05;49707.06;;;-146.94;71.87
56737;BME280;42618;51.226;4.910;2023-04-23T07:30:32;49681.16;;;-146.94;71.91
56737;BME280;42618;51.226;4.910;2023-04-23T07:32:59;49703.09;;;-146.94;71.63
56737;BME280;42618;51.226;4.910;2023-04-23T07:35:26;49659.22;;;-146.94;69.19
56737;BME280;42618;51.226;4.910;2023-04-23T07:37:53;49643.28;;;-146.94;68.33
56737;BME280;42618;51.226;4.910;2023-04-23T07:40:22;49691.13;;;-146.94;67.90
56737;BME280;42618;51.226;4.910;2023-04-23T07:42:50;49738.97;;;-146.94;69.56
56737;BME280;42618;51.226;4.910;2023-04-23T07:45:17;49663.22;;;-146.94;67.81
56737;BME280;42618;51.226;4.910;2023-04-23T07:47:44;49719.03;;;-146.94;68.43
56737;BME280;42618;51.226;4.910;2023-04-23T07:50:12;49675.19;;;-146.94;67.81
56737;BME280;42618;51.226;4.910;2023-04-23T07:52:39;49679.16;;;-146.94;69.73
56737;BME280;42618;51.226;4.910;2023-04-23T07:55:07;49677.16;;;-146.94;68.25
56737;BME280;42618;51.226;4.910;2023-04-23T07:57:35;49667.19;;;-146.94;66.75
56737;BME280;42618;51.226;4.910;2023-04-23T08:00:03;49675.19;;;-146.94;64.97
56737;BME280;42618;51.226;4.910;2023-04-23T08:02:37;49671.19;;;-146.94;64.84
56737;BME280;42618;51.226;4.910;2023-04-23T08:05:04;49665.22;;;-146.94;66.16
56737;BME280;42618;51.226;4.910;2023-04-23T08:07:32;49721.03;;;-146.94;65.25
56737;BME280;42618;51.226;4.910;2023-04-23T08:09:59;49647.25;;;-146.94;66.02
56737;BME280;42618;51.226;4.910;2023-04-23T08:12:29;49667.19;;;-146.94;64.43
56737;BME280;42618;51.226;4.910;2023-04-23T08:14:56;49645.28;;;-146.94;63.99
56737;BME280;42618;51.226;4.910;2023-04-23T08:17:30;49645.28;;;-146.94;62.92
56737;BME280;42618;51.226;4.910;2023-04-23T08:19:56;49635.31;;;-146.94;62.32
56737;BME280;42618;51.226;4.910;2023-04-23T08:22:23;49651.25;;;-146.94;62.83
56737;BME280;42618;51.226;4.910;2023-04-23T08:24:50;49657.22;;;-146.94;61.49
56737;BME280;42618;51.226;4.910;2023-04-23T08:27:17;49671.19;;;-146.94;61.52
56737;BME280;42618;51.226;4.910;2023-04-23T08:29:43;49635.31;;;-146.94;62.07
56737;BME280;42618;51.226;4.910;2023-04-23T08:32:10;49675.19;;;-146.94;63.10
56737;BME280;42618;51.226;4.910;2023-04-23T08:34:37;49667.19;;;-146.94;62.41
56737;BME280;42618;51.226;4.910;2023-04-23T08:37:05;49697.09;;;-146.94;61.84
56737;BME280;42618;51.226;4.910;2023-04-23T08:39:35;49627.31;;;-146.94;59.09
56737;BME280;42618;51.226;4.910;2023-04-23T08:42:10;49635.31;;;-146.94;59.53
56737;BME280;42618;51.226;4.910;2023-04-23T08:44:40;49667.19;;;-146.94;60.29
56737;BME280;42618;51.226;4.910;2023-04-23T08:47:10;49643.28;;;-146.94;58.72
56737;BME280;42618;51.226;4.910;2023-04-23T08:49:40;49647.25;;;-146.94;58.16
56737;BME280;42618;51.226;4.910;2023-04-23T08:52:22;49655.25;;;-146.94;57.64
56737;BME280;42618;51.226;4.910;2023-04-23T08:54:52;49623.34;;;-146.94;56.16
56737;BME280;42618;51.226;4.910;2023-04-23T08:57:19;49665.22;;;-146.94;58.10
56737;BME280;42618;51.226;4.910;2023-04-23T08:59:46;49647.25;;;-146.94;57.07
56737;BME280;42618;51.226;4.910;2023-04-23T09:02:13;49647.25;;;-146.94;56.79
56737;BME280;42618;51.226;4.910;2023-04-23T09:04:41;49635.31;;;-146.94;56.63
56737;BME280;42618;51.226;4.910;2023-04-23T09:07:08;49635.31;;;-146.94;54.25
56737;BME280;42618;51.226;4.910;2023-04-23T09:09:38;49665.22;;;-146.94;54.74
56737;BME280;42618;51.226;4.910;2023-04-23T09:12:07;49659.22;;;-146.94;53.23
56737;BME280;42618;51.226;4.910;2023-04-23T09:14:35;49679.16;;;-146.94;52.63
56737;BME280;42618;51.226;4.910;2023-04-23T09:17:02;49629.31;;;-146.94;53.18
56737;BME280;42618;51.226;4.910;2023-04-23T09:19:29;49639.28;;;-146.94;54.09
56737;BME280;42618;51.226;4.910;2023-04-23T09:21:57;49671.19;;;-146.94;54.39
56737;BME280;42618;51.226;4.910;2023-04-23T09:24:24;49635.31;;;-146.94;54.21
56737;BME280;42618;51.226;4.910;2023-04-23T09:26:51;49653.25;;;-146.94;54.48
56737;BME280;42618;51.226;4.910;2023-04-23T09:29:19;49635.31;;;-146.94;53.04
56737;BME280;42618;51.226;4.910;2023-04-23T09:31:50;49663.22;;;-146.94;53.81
56737;BME280;42618;51.226;4.910;2023-04-23T09:34:19;49643.28;;;-146.94;55.13
56737;BME280;42618;51.226;4.910;2023-04-23T09:36:47;49627.31;;;-146.94;54.44
56737;BME280;42618;51.226;4.910;2023-04-23T09:39:22;49627.31;;;-146.94;53.80
56737;BME280;42618;51.226;4.910;2023-04-23T09:41:53;49677.16;;;-146.94;52.94
56737;BME280;42618;51.226;4.910;2023-04-23T09:44:21;49633.31;;;-146.94;52.37
56737;BME280;42618;51.226;4.910;2023-04-23T09:46:48;49657.22;;;-146.94;51.82
56737;BME280;42618;51.226;4.910;2023-04-23T09:49:15;49655.25;;;-146.94;52.43
56737;BME280;42618;51.226;4.910;2023-04-23T09:51:47;49643.28;;;-146.94;52.54
56737;BME280;42618;51.226;4.910;2023-04-23T09:54:15;49649.25;;;-146.94;51.61
56737;BME280;42618;51.226;4.910;2023-04-23T09:56:48;49643.28;;;-146.94;52.34
56737;BME280;42618;51.226;4.910;2023-04-23T09:59:26;49615.38;;;-146.94;51.84
56737;BME280;42618;51.226;4.910;2023-04-23T10:02:01;49627.31;;;-146.94;51.25
56737;BME280;42618;51.226;4.910;2023-04-23T10:04:28;49647.25;;;-146.94;50.54
56737;BME280;42618;51.226;4.910;2023-04-23T10:06:56;49651.25;;;-146.94;50.01
56737;BME280;42618;51.226;4.910;2023-04-23T10:09:43;49607.41;;;-146.94;49.66
56737;BME280;42618;51.226;4.910;2023-04-23T10:12:10;49603.41;;;-146.94;50.84
56737;BME280;42618;51.226;4.910;2023-04-23T10:14:41;49619.34;;;-146.94;52.01
56737;BME280;42618;51.226;4.910;2023-04-23T10:17:08;49641.28;;;-146.94;50.57
56737;BME280;42618;51.226;4.910;2023-04-23T10:19:36;49639.28;;;-146.94;51.30
56737;BME280;42618;51.226;4.910;2023-04-23T10:22:09;49623.34;;;-146.94;50.76
56737;BME280;42618;51.226;4.910;2023-04-23T10:24:47;49649.25;;;-146.94;50.62
56737;BME280;42618;51.226;4.910;2023-04-23T10:27:17;49621.34;;;-146.94;51.04
56737;BME280;42618;51.226;4.910;2023-04-23T10:29:51;49647.25;;;-146.94;50.73
56737;BME280;42618;51.226;4.910;2023-04-23T10:32:19;49629.31;;;-146.94;51.19
56737;BME280;42618;51.226;4.910;2023-04-23T10:34:47;49637.28;;;-146.94;51.20
56737;BME280;42618;51.226;4.910;2023-04-23T10:37:14;49667.19;;;-146.94;50.36
56737;BME280;42618;51.226;4.910;2023-04-23T10:39:43;49627.31;;;-146.94;50.16
56737;BME280;42618;51.226;4.910;2023-04-23T10:42:10;49659.22;;;-146.94;49.87
56737;BME280;42618;51.226;4.910;2023-04-23T10:44:41;49635.31;;;-146.94;49.35
56737;BME280;42618;51.226;4.910;2023-04-23T10:47:15;49671.19;;;-146.94;48.30
56737;BME280;42618;51.226;4.910;2023-04-23T10:49:43;49591.44;;;-146.94;48.40
56737;BME280;42618;51.226;4.910;2023-04-23T10:52:13;49615.38;;;-146.94;48.12
56737;BME280;42618;51.226;4.910;2023-04-23T10:54:48;49639.28;;;-146.94;47.91
56737;BME280;42618;51.226;4.910;2023-04-23T10:57:15;49579.47;;;-146.94;47.99
56737;BME280;42618;51.226;4.910;2023-04-23T10:59:53;49609.38;;;-146.94;48.32
56737;BME280;42618;51.226;4.910;2023-04-23T11:02:22;49643.28;;;-146.94;47.77
56737;BME280;42618;51.226;4.910;2023-04-23T11:04:57;49619.34;;;-146.94;48.17
56737;BME280;42618;51.226;4.910;2023-04-23T11:07:29;49611.38;;;-146.94;47.96
56737;BME280;42618;51.226;4.910;2023-04-23T11:10:09;49599.41;;;-146.94;48.11
56737;BME280;42618;51.226;4.910;2023-04-23T11:12:38;49603.41;;;-146.94;48.49
56737;BME280;42618;51.226;4.910;2023-04-23T11:15:11;49629.31;;;-146.94;48.77
56737;BME280;42618;51.226;4.910;2023-04-23T11:20:10;49611.38;;;-146.94;48.69
56737;BME280;42618;51.226;4.910;2023-04-23T11:22:42;49617.38;;;-146.94;47.04
56737;BME280;42618;51.226;4.910;2023-04-23T11:25:10;49619.34;;;-146.94;46.33
56737;BME280;42618;51.226;4.910;2023-04-23T11:27:39;49595.44;;;-146.94;47.78
56737;BME280;42618;51.226;4.910;2023-04-23T11:30:11;49585.47;;;-146.94;46.51
56737;BME280;42618;51.226;4.910;2023-04-23T11:32:40;49623.34;;;-146.94;45.68
56737;BME280;42618;51.226;4.910;2023-04-23T11:35:08;49597.44;;;-146.94;45.59
56737;BME280;42618;51.226;4.910;2023-04-23T11:37:39;49629.31;;;-146.94;46.18
56737;BME280;42618;51.226;4.910;2023-04-23T11:40:12;49607.41;;;-146.94;46.18
56737;BME280;42618;51.226;4.910;2023-04-23T11:42:47;49623.34;;;-146.94;45.62
56737;BME280;42618;51.226;4.910;2023-04-23T11:47:45;49603.41;;;-146.94;45.33
56737;BME280;42618;51.226;4.910;2023-04-23T11:50:19;49577.50;;;-146.94;45.33
56737;BME280;42618;51.226;4.910;2023-04-23T11:52:46;49625.34;;;-146.94;44.70
56737;BME280;42618;51.226;4.910;2023-04-23T11:55:14;49639.28;;;-146.94;46.59
56737;BME280;42618;51.226;4.910;2023-04-23T11:57:43;49623.34;;;-146.94;45.47
56737;BME280;42618;51.226;4.910;2023-04-23T12:00:22;49629.31;;;-146.94;45.65
56737;BME280;42618;51.226;4.910;2023-04-23T12:02:53;49611.38;;;-146.94;45.93
56737;BME280;42618;51.226;4.910;2023-04-23T12:05:22;49615.38;;;-146.94;44.56
56737;BME280;42618;51.226;4.910;2023-04-23T12:07:53;49599.41;;;-146.94;43.99
56737;BME280;42618;51.226;4.910;2023-04-23T12:10:21;49603.41;;;-146.94;43.13
56737;BME280;42618;51.226;4.910;2023-04-23T12:12:51;49601.41;;;-146.94;43.61
56737;BME280;42618;51.226;4.910;2023-04-23T12:15:19;49619.34;;;-146.94;42.86
56737;BME280;42618;51.226;4.910;2023-04-23T12:17:49;49591.44;;;-146.94;42.99
56737;BME280;42618;51.226;4.910;2023-04-23T12:20:20;49623.34;;;-146.94;43.19
56737;BME280;42618;51.226;4.910;2023-04-23T12:22:47;49583.47;;;-146.94;42.41
56737;BME280;42618;51.226;4.910;2023-04-23T12:25:14;49607.41;;;-146.94;42.24
56737;BME280;42618;51.226;4.910;2023-04-23T12:27:43;49607.41;;;-146.94;42.37
56737;BME280;42618;51.226;4.910;2023-04-23T12:30:10;49581.47;;;-146.94;42.47
56737;BME280;42618;51.226;4.910;2023-04-23T12:32:37;49571.50;;;-146.94;42.42
56737;BME280;42618;51.226;4.910;2023-04-23T12:35:04;49607.41;;;-146.94;41.76
56737;BME280;42618;51.226;4.910;2023-04-23T12:37:35;49595.44;;;-146.94;43.00
56737;BME280;42618;51.226;4.910;2023-04-23T12:40:03;49561.53;;;-146.94;42.87
56737;BME280;42618;51.226;4.910;2023-04-23T12:42:32;49621.34;;;-146.94;43.50
56737;BME280;42618;51.226;4.910;2023-04-23T12:45:04;49577.50;;;-146.94;43.02
56737;BME280;42618;51.226;4.910;2023-04-23T12:47:31;49593.44;;;-146.94;43.35
56737;BME280;42618;51.226;4.910;2023-04-23T12:49:57;49619.34;;;-146.94;43.13
56737;BME280;42618;51.226;4.910;2023-04-23T12:52:27;49583.47;;;-146.94;43.31